sensor_id;sensor_type;location;lat;lon;timestamp;pressure;altitude;pressure_sealevel;temperature;humidity
20987;BME280;10652;50.306;8.570;2023-03-13T00:00:23;97206.56;;;7.45;87.16
20987;BME280;10652;50.306;8.570;2023-03-13T00:04:25;97212.81;;;7.43;87.61
20987;BME280;10652;50.306;8.570;2023-03-13T00:08:28;97207.56;;;7.43;88.43
20987;BME280;10652;50.306;8.570;2023-03-13T00:12:31;97196.13;;;7.45;88.83
20987;BME280;10652;50.306;8.570;2023-03-13T00:16:33;97192.47;;;7.49;88.94
20987;BME280;10652;50.306;8.570;2023-03-13T00:20:36;97187.38;;;7.46;88.89
20987;BME280;10652;50.306;8.570;2023-03-13T00:24:38;97180.00;;;7.54;90.28
20987;BME280;10652;50.306;8.570;2023-03-13T00:28:41;97165.56;;;7.64;90.21
20987;BME280;10652;50.306;8.570;2023-03-13T00:32:44;97148.66;;;7.71;90.09
20987;BME280;10652;50.306;8.570;2023-03-13T00:36:47;97146.66;;;7.76;89.90
20987;BME280;10652;50.306;8.570;2023-03-13T00:40:49;97140.50;;;7.77;89.66
20987;BME280;10652;50.306;8.570;2023-03-13T00:45:01;97131.56;;;7.81;89.81
20987;BME280;10652;50.306;8.570;2023-03-13T00:49:04;97120.97;;;7.85;90.21
20987;BME280;10652;50.306;8.570;2023-03-13T00:53:07;97115.59;;;7.88;89.85
20987;BME280;10652;50.306;8.570;2023-03-13T00:57:10;97092.84;;;7.90;90.19
20987;BME280;10652;50.306;8.570;2023-03-13T01:01:13;97093.56;;;7.92;89.96
20987;BME280;10652;50.306;8.570;2023-03-13T01:05:15;97099.72;;;7.91;90.04
20987;BME280;10652;50.306;8.570;2023-03-13T01:09:17;97099.72;;;7.91;89.97
20987;BME280;10652;50.306;8.570;2023-03-13T01:13:19;97085.72;;;7.92;90.54
20987;BME280;10652;50.306;8.570;2023-03-13T01:17:21;97084.59;;;7.97;91.79
20987;BME280;10652;50.306;8.570;2023-03-13T01:21:24;97088.22;;;8.27;91.22
20987;BME280;10652;50.306;8.570;2023-03-13T01:25:26;97075.38;;;8.23;89.22
20987;BME280;10652;50.306;8.570;2023-03-13T01:29:28;97059.94;;;8.18;89.30
20987;BME280;10652;50.306;8.570;2023-03-13T01:33:30;97057.50;;;8.15;89.27
20987;BME280;10652;50.306;8.570;2023-03-13T01:37:32;97039.22;;;8.14;89.27
20987;BME280;10652;50.306;8.570;2023-03-13T01:41:36;97032.22;;;8.14;89.56
20987;BME280;10652;50.306;8.570;2023-03-13T01:46:02;97031.34;;;8.15;89.62
20987;BME280;10652;50.306;8.570;2023-03-13T01:50:18;97034.94;;;8.13;89.50
20987;BME280;10652;50.306;8.570;2023-03-13T01:54:38;97021.88;;;8.13;89.18
20987;BME280;10652;50.306;8.570;2023-03-13T01:58:41;97018.66;;;8.08;89.47
20987;BME280;10652;50.306;8.570;2023-03-13T02:02:47;97006.66;;;8.04;90.85
20987;BME280;10652;50.306;8.570;2023-03-13T02:06:53;97002.50;;;8.00;92.14
20987;BME280;10652;50.306;8.570;2023-03-13T02:15:40;96990.25;;;7.85;96.36
20987;BME280;10652;50.306;8.570;2023-03-13T02:19:46;96982.72;;;7.78;98.49
20987;BME280;10652;50.306;8.570;2023-03-13T02:24:26;96980.06;;;7.96;100.00
20987;BME280;10652;50.306;8.570;2023-03-13T02:28:34;96977.69;;;7.91;100.00
20987;BME280;10652;50.306;8.570;2023-03-13T02:32:40;96960.56;;;7.86;100.00
20987;BME280;10652;50.306;8.570;2023-03-13T02:36:43;96944.59;;;7.74;100.00
20987;BME280;10652;50.306;8.570;2023-03-13T02:40:47;96961.56;;;7.67;100.00
20987;BME280;10652;50.306;8.570;2023-03-13T02:44:51;96954.03;;;7.61;100.00
20987;BME280;10652;50.306;8.570;2023-03-13T02:48:55;96942.13;;;7.56;100.00
20987;BME280;10652;50.306;8.570;2023-03-13T02:53:04;96924.25;;;7.48;100.00
20987;BME280;10652;50.306;8.570;2023-03-13T02:57:08;96933.00;;;7.47;100.00
20987;BME280;10652;50.306;8.570;2023-03-13T03:01:10;96932.31;;;7.44;100.00
20987;BME280;10652;50.306;8.570;2023-03-13T03:05:15;96907.19;;;7.41;100.00
20987;BME280;10652;50.306;8.570;2023-03-13T03:09:18;96897.44;;;7.45;100.00
20987;BME280;10652;50.306;8.570;2023-03-13T03:13:21;96895.88;;;7.41;100.00
20987;BME280;10652;50.306;8.570;2023-03-13T03:17:23;96903.81;;;7.39;100.00
20987;BME280;10652;50.306;8.570;2023-03-13T03:21:25;96901.28;;;7.37;100.00
20987;BME280;10652;50.306;8.570;2023-03-13T03:25:27;96902.31;;;7.35;100.00
20987;BME280;10652;50.306;8.570;2023-03-13T03:29:29;96903.22;;;7.34;100.00
20987;BME280;10652;50.306;8.570;2023-03-13T03:33:33;96878.94;;;7.32;100.00
20987;BME280;10652;50.306;8.570;2023-03-13T03:37:39;96881.72;;;7.29;100.00
20987;BME280;10652;50.306;8.570;2023-03-13T03:41:41;96879.28;;;7.26;100.00
20987;BME280;10652;50.306;8.570;2023-03-13T03:45:45;96873.34;;;7.22;100.00
20987;BME280;10652;50.306;8.570;2023-03-13T03:49:48;96876.13;;;7.19;100.00
20987;BME280;10652;50.306;8.570;2023-03-13T03:53:50;96863.13;;;7.18;100.00
20987;BME280;10652;50.306;8.570;2023-03-13T03:57:53;96865.75;;;7.18;100.00
20987;BME280;10652;50.306;8.570;2023-03-13T04:02:13;96847.31;;;7.21;100.00
20987;BME280;10652;50.306;8.570;2023-03-13T04:06:17;96841.75;;;7.27;100.00
20987;BME280;10652;50.306;8.570;2023-03-13T04:10:20;96832.00;;;7.30;100.00
20987;BME280;10652;50.306;8.570;2023-03-13T04:14:22;96829.31;;;7.32;100.00
20987;BME280;10652;50.306;8.570;2023-03-13T04:18:26;96828.97;;;7.38;100.00
20987;BME280;10652;50.306;8.570;2023-03-13T04:22:28;96829.84;;;7.38;100.00
20987;BME280;10652;50.306;8.570;2023-03-13T04:26:32;96817.44;;;7.42;100.00
20987;BME280;10652;50.306;8.570;2023-03-13T04:30:35;96802.69;;;7.41;100.00
20987;BME280;10652;50.306;8.570;2023-03-13T04:34:51;96813.91;;;7.43;100.00
20987;BME280;10652;50.306;8.570;2023-03-13T04:39:15;96805.75;;;7.49;100.00
20987;BME280;10652;50.306;8.570;2023-03-13T04:43:35;96809.97;;;7.67;100.00
20987;BME280;10652;50.306;8.570;2023-03-13T04:47:45;96814.66;;;8.08;100.00
20987;BME280;10652;50.306;8.570;2023-03-13T04:52:10;96796.22;;;8.09;100.00
20987;BME280;10652;50.306;8.570;2023-03-13T04:56:31;96818.66;;;8.13;100.00
20987;BME280;10652;50.306;8.570;2023-03-13T05:01:04;96823.88;;;8.13;100.00
20987;BME280;10652;50.306;8.570;2023-03-13T05:05:25;96799.44;;;8.14;100.00
20987;BME280;10652;50.306;8.570;2023-03-13T05:09:50;96777.84;;;8.11;100.00
20987;BME280;10652;50.306;8.570;2023-03-13T05:14:15;96784.25;;;8.05;100.00
20987;BME280;10652;50.306;8.570;2023-03-13T05:18:40;96757.25;;;8.05;100.00
20987;BME280;10652;50.306;8.570;2023-03-13T05:23:01;96767.56;;;8.08;100.00
20987;BME280;10652;50.306;8.570;2023-03-13T05:27:21;96744.38;;;8.02;100.00
20987;BME280;10652;50.306;8.570;2023-03-13T05:31:37;96746.59;;;7.94;100.00
20987;BME280;10652;50.306;8.570;2023-03-13T05:35:48;96757.47;;;7.86;100.00
20987;BME280;10652;50.306;8.570;2023-03-13T05:40:09;96784.81;;;7.80;100.00
20987;BME280;10652;50.306;8.570;2023-03-13T05:44:34;96771.91;;;7.77;100.00
20987;BME280;10652;50.306;8.570;2023-03-13T05:48:50;96751.19;;;7.74;100.00
20987;BME280;10652;50.306;8.570;2023-03-13T05:53:15;96754.81;;;7.72;100.00
20987;BME280;10652;50.306;8.570;2023-03-13T05:57:47;96743.53;;;7.71;100.00
20987;BME280;10652;50.306;8.570;2023-03-13T06:02:07;96751.09;;;7.76;100.00
20987;BME280;10652;50.306;8.570;2023-03-13T06:06:14;96714.97;;;7.82;100.00
20987;BME280;10652;50.306;8.570;2023-03-13T06:10:28;96712.03;;;7.89;100.00
20987;BME280;10652;50.306;8.570;2023-03-13T06:14:30;96709.22;;;7.92;100.00
20987;BME280;10652;50.306;8.570;2023-03-13T06:18:51;96713.25;;;7.97;100.00
20987;BME280;10652;50.306;8.570;2023-03-13T06:22:53;96713.91;;;8.01;100.00
20987;BME280;10652;50.306;8.570;2023-03-13T06:26:55;96714.50;;;8.06;100.00
20987;BME280;10652;50.306;8.570;2023-03-13T06:31:04;96721.22;;;8.10;100.00
20987;BME280;10652;50.306;8.570;2023-03-13T06:35:07;96719.44;;;8.26;100.00
20987;BME280;10652;50.306;8.570;2023-03-13T06:39:10;96707.69;;;8.47;100.00
20987;BME280;10652;50.306;8.570;2023-03-13T06:43:12;96724.16;;;8.63;100.00
20987;BME280;10652;50.306;8.570;2023-03-13T06:47:14;96728.66;;;8.76;100.00
20987;BME280;10652;50.306;8.570;2023-03-13T06:51:19;96717.63;;;8.85;100.00
20987;BME280;10652;50.306;8.570;2023-03-13T06:55:23;96723.31;;;8.91;100.00
20987;BME280;10652;50.306;8.570;2023-03-13T06:59:25;96714.25;;;8.97;100.00
20987;BME280;10652;50.306;8.570;2023-03-13T07:03:27;96737.59;;;9.28;100.00
20987;BME280;10652;50.306;8.570;2023-03-13T07:07:29;96734.56;;;9.89;100.00
20987;BME280;10652;50.306;8.570;2023-03-13T07:11:33;96740.31;;;10.21;100.00
20987;BME280;10652;50.306;8.570;2023-03-13T07:15:35;96759.69;;;10.06;100.00
20987;BME280;10652;50.306;8.570;2023-03-13T07:19:37;96744.75;;;9.94;100.00
20987;BME280;10652;50.306;8.570;2023-03-13T07:23:39;96750.47;;;9.86;100.00
20987;BME280;10652;50.306;8.570;2023-03-13T07:27:42;96752.38;;;9.84;100.00
20987;BME280;10652;50.306;8.570;2023-03-13T07:31:44;96739.56;;;9.80;100.00
20987;BME280;10652;50.306;8.570;2023-03-13T07:35:47;96737.66;;;9.68;100.00
20987;BME280;10652;50.306;8.570;2023-03-13T07:39:50;96726.56;;;9.64;100.00
20987;BME280;10652;50.306;8.570;2023-03-13T07:43:52;96710.94;;;9.63;100.00
20987;BME280;10652;50.306;8.570;2023-03-13T07:47:54;96727.41;;;9.65;100.00
20987;BME280;10652;50.306;8.570;2023-03-13T07:51:56;96733.47;;;9.65;100.00
20987;BME280;10652;50.306;8.570;2023-03-13T07:56:10;96729.81;;;9.68;100.00
20987;BME280;10652;50.306;8.570;2023-03-13T08:00:12;96727.19;;;9.68;100.00
20987;BME280;10652;50.306;8.570;2023-03-13T08:04:17;96741.53;;;9.76;100.00
20987;BME280;10652;50.306;8.570;2023-03-13T08:08:20;96737.13;;;9.77;100.00
20987;BME280;10652;50.306;8.570;2023-03-13T08:12:22;96731.19;;;9.87;100.00
20987;BME280;10652;50.306;8.570;2023-03-13T08:16:29;96729.88;;;10.07;100.00
20987;BME280;10652;50.306;8.570;2023-03-13T08:20:32;96727.91;;;10.23;100.00
20987;BME280;10652;50.306;8.570;2023-03-13T08:24:34;96715.88;;;10.33;100.00
20987;BME280;10652;50.306;8.570;2023-03-13T08:28:37;96708.13;;;10.44;100.00
20987;BME280;10652;50.306;8.570;2023-03-13T08:32:40;96710.63;;;10.59;100.00
20987;BME280;10652;50.306;8.570;2023-03-13T08:36:42;96715.78;;;10.73;100.00
20987;BME280;10652;50.306;8.570;2023-03-13T08:40:44;96702.53;;;10.87;100.00
20987;BME280;10652;50.306;8.570;2023-03-13T08:44:46;96704.19;;;11.01;100.00
20987;BME280;10652;50.306;8.570;2023-03-13T08:48:50;96707.78;;;11.12;100.00
20987;BME280;10652;50.306;8.570;2023-03-13T08:52:52;96711.97;;;11.15;100.00
20987;BME280;10652;50.306;8.570;2023-03-13T08:56:54;96717.13;;;11.16;100.00
20987;BME280;10652;50.306;8.570;2023-03-13T09:01:01;96721.31;;;11.19;100.00
20987;BME280;10652;50.306;8.570;2023-03-13T09:05:04;96709.31;;;11.27;100.00
20987;BME280;10652;50.306;8.570;2023-03-13T09:09:06;96714.84;;;11.35;100.00
20987;BME280;10652;50.306;8.570;2023-03-13T09:13:09;96709.91;;;11.44;100.00
20987;BME280;10652;50.306;8.570;2023-03-13T09:17:11;96693.31;;;11.67;100.00
20987;BME280;10652;50.306;8.570;2023-03-13T09:21:16;96704.22;;;11.97;100.00
20987;BME280;10652;50.306;8.570;2023-03-13T09:25:19;96667.88;;;12.13;100.00
20987;BME280;10652;50.306;8.570;2023-03-13T09:29:21;96675.31;;;12.19;100.00
20987;BME280;10652;50.306;8.570;2023-03-13T09:33:23;96668.03;;;12.23;99.08
20987;BME280;10652;50.306;8.570;2023-03-13T09:37:25;96671.81;;;12.43;98.58
20987;BME280;10652;50.306;8.570;2023-03-13T09:41:39;96658.56;;;12.55;97.23
20987;BME280;10652;50.306;8.570;2023-03-13T09:45:45;96639.75;;;12.60;96.39
20987;BME280;10652;50.306;8.570;2023-03-13T09:49:53;96646.69;;;12.72;95.26
20987;BME280;10652;50.306;8.570;2023-03-13T09:58:23;96661.19;;;13.00;93.58
20987;BME280;10652;50.306;8.570;2023-03-13T10:02:34;96670.88;;;12.99;93.50
20987;BME280;10652;50.306;8.570;2023-03-13T10:06:39;96669.09;;;13.11;92.84
20987;BME280;10652;50.306;8.570;2023-03-13T10:10:46;96672.66;;;13.32;92.70
20987;BME280;10652;50.306;8.570;2023-03-13T10:19:25;96660.06;;;13.36;92.86
20987;BME280;10652;50.306;8.570;2023-03-13T10:23:53;96647.59;;;13.49;92.02
20987;BME280;10652;50.306;8.570;2023-03-13T10:27:59;96649.97;;;13.41;91.09
20987;BME280;10652;50.306;8.570;2023-03-13T10:32:04;96647.13;;;13.44;91.81
20987;BME280;10652;50.306;8.570;2023-03-13T10:36:12;96656.94;;;13.42;91.52
20987;BME280;10652;50.306;8.570;2023-03-13T10:40:23;96633.91;;;13.55;91.62
20987;BME280;10652;50.306;8.570;2023-03-13T10:44:32;96644.59;;;13.85;91.41
20987;BME280;10652;50.306;8.570;2023-03-13T10:48:35;96641.50;;;13.80;88.25
20987;BME280;10652;50.306;8.570;2023-03-13T10:52:44;96638.16;;;13.78;88.92
20987;BME280;10652;50.306;8.570;2023-03-13T10:56:46;96647.91;;;13.98;89.80
20987;BME280;10652;50.306;8.570;2023-03-13T11:00:49;96616.59;;;14.35;87.92
20987;BME280;10652;50.306;8.570;2023-03-13T11:04:52;96623.53;;;14.57;87.02
20987;BME280;10652;50.306;8.570;2023-03-13T11:09:03;96614.91;;;14.85;83.60
20987;BME280;10652;50.306;8.570;2023-03-13T11:13:26;96614.09;;;14.95;83.31
20987;BME280;10652;50.306;8.570;2023-03-13T11:17:41;96618.78;;;14.81;81.71
20987;BME280;10652;50.306;8.570;2023-03-13T11:26:15;96608.66;;;14.56;81.96
20987;BME280;10652;50.306;8.570;2023-03-13T11:30:41;96616.56;;;14.26;83.93
20987;BME280;10652;50.306;8.570;2023-03-13T11:34:50;96602.88;;;14.00;87.07
20987;BME280;10652;50.306;8.570;2023-03-13T11:39:06;96603.44;;;13.83;89.36
20987;BME280;10652;50.306;8.570;2023-03-13T11:43:24;96605.75;;;13.76;90.60
20987;BME280;10652;50.306;8.570;2023-03-13T11:56:27;96569.97;;;14.25;89.72
20987;BME280;10652;50.306;8.570;2023-03-13T12:00:40;96569.03;;;14.35;87.93
20987;BME280;10652;50.306;8.570;2023-03-13T12:04:50;96536.59;;;14.24;86.85
20987;BME280;10652;50.306;8.570;2023-03-13T12:09:01;96537.19;;;14.07;86.32
20987;BME280;10652;50.306;8.570;2023-03-13T12:13:30;96541.97;;;13.71;86.92
20987;BME280;10652;50.306;8.570;2023-03-13T12:17:42;96532.84;;;13.43;88.71
20987;BME280;10652;50.306;8.570;2023-03-13T12:21:52;96544.53;;;13.30;90.06
20987;BME280;10652;50.306;8.570;2023-03-13T12:26:01;96537.28;;;13.11;91.71
20987;BME280;10652;50.306;8.570;2023-03-13T12:30:37;96506.88;;;13.28;92.61
20987;BME280;10652;50.306;8.570;2023-03-13T12:35:19;96507.22;;;13.34;93.11
20987;BME280;10652;50.306;8.570;2023-03-13T12:39:44;96495.41;;;13.18;92.97
20987;BME280;10652;50.306;8.570;2023-03-13T12:43:52;96506.69;;;13.20;93.38
20987;BME280;10652;50.306;8.570;2023-03-13T12:58:00;96475.50;;;13.25;94.18
20987;BME280;10652;50.306;8.570;2023-03-13T13:02:17;96452.00;;;13.74;90.96
20987;BME280;10652;50.306;8.570;2023-03-13T13:06:21;96441.50;;;13.84;87.97
20987;BME280;10652;50.306;8.570;2023-03-13T13:10:24;96448.13;;;13.78;87.76
20987;BME280;10652;50.306;8.570;2023-03-13T13:18:30;96444.38;;;13.81;88.41
20987;BME280;10652;50.306;8.570;2023-03-13T13:26:37;96418.06;;;14.40;86.97
20987;BME280;10652;50.306;8.570;2023-03-13T13:30:39;96413.56;;;14.31;85.03
20987;BME280;10652;50.306;8.570;2023-03-13T13:38:54;96390.41;;;14.44;84.95
20987;BME280;10652;50.306;8.570;2023-03-13T13:42:58;96369.66;;;14.20;85.15
20987;BME280;10652;50.306;8.570;2023-03-13T13:47:01;96362.81;;;14.18;86.85
20987;BME280;10652;50.306;8.570;2023-03-13T13:51:19;96345.19;;;14.37;86.44
20987;BME280;10652;50.306;8.570;2023-03-13T13:55:46;96327.13;;;14.33;85.22
20987;BME280;10652;50.306;8.570;2023-03-13T13:59:52;96329.63;;;14.25;85.87
20987;BME280;10652;50.306;8.570;2023-03-13T14:04:10;96322.56;;;14.35;85.80
20987;BME280;10652;50.306;8.570;2023-03-13T14:08:29;96293.22;;;14.38;85.11
20987;BME280;10652;50.306;8.570;2023-03-13T14:12:36;96294.31;;;14.26;84.67
20987;BME280;10652;50.306;8.570;2023-03-13T14:16:42;96294.56;;;14.23;85.27
20987;BME280;10652;50.306;8.570;2023-03-13T14:21:01;96289.56;;;14.10;85.73
20987;BME280;10652;50.306;8.570;2023-03-13T14:25:04;96274.66;;;13.99;86.26
20987;BME280;10652;50.306;8.570;2023-03-13T14:29:06;96265.63;;;13.92;87.09
20987;BME280;10652;50.306;8.570;2023-03-13T14:33:16;96247.00;;;13.84;87.21
20987;BME280;10652;50.306;8.570;2023-03-13T14:37:54;96232.56;;;13.79;88.87
20987;BME280;10652;50.306;8.570;2023-03-13T14:46:30;96265.53;;;13.54;95.15
20987;BME280;10652;50.306;8.570;2023-03-13T14:50:33;96244.59;;;13.32;98.78
20987;BME280;10652;50.306;8.570;2023-03-13T14:54:57;96268.56;;;13.19;100.00
20987;BME280;10652;50.306;8.570;2023-03-13T15:07:18;96196.09;;;12.83;100.00
20987;BME280;10652;50.306;8.570;2023-03-13T15:11:29;96185.06;;;12.68;100.00
20987;BME280;10652;50.306;8.570;2023-03-13T15:15:35;96196.25;;;12.61;100.00
20987;BME280;10652;50.306;8.570;2023-03-13T15:19:37;96177.88;;;12.50;99.37
20987;BME280;10652;50.306;8.570;2023-03-13T15:23:40;96176.75;;;12.43;99.22
20987;BME280;10652;50.306;8.570;2023-03-13T15:27:43;96155.94;;;12.40;99.68
20987;BME280;10652;50.306;8.570;2023-03-13T15:31:45;96120.16;;;12.37;99.50
20987;BME280;10652;50.306;8.570;2023-03-13T15:35:49;96126.06;;;12.30;99.61
20987;BME280;10652;50.306;8.570;2023-03-13T15:39:52;96127.28;;;12.25;100.00
20987;BME280;10652;50.306;8.570;2023-03-13T15:43:54;96123.25;;;12.21;100.00
20987;BME280;10652;50.306;8.570;2023-03-13T15:47:59;96124.44;;;12.17;100.00
20987;BME280;10652;50.306;8.570;2023-03-13T15:52:01;96112.38;;;12.36;100.00
20987;BME280;10652;50.306;8.570;2023-03-13T15:56:18;96130.91;;;12.76;99.44
20987;BME280;10652;50.306;8.570;2023-03-13T16:00:24;96124.31;;;13.00;94.83
20987;BME280;10652;50.306;8.570;2023-03-13T16:04:26;96105.25;;;12.78;93.79
20987;BME280;10652;50.306;8.570;2023-03-13T16:08:28;96124.69;;;12.56;94.42
20987;BME280;10652;50.306;8.570;2023-03-13T16:12:37;96099.44;;;12.44;94.30
20987;BME280;10652;50.306;8.570;2023-03-13T16:16:39;96080.28;;;12.42;94.20
20987;BME280;10652;50.306;8.570;2023-03-13T16:20:41;96068.28;;;12.49;94.22
20987;BME280;10652;50.306;8.570;2023-03-13T16:24:44;96063.97;;;12.48;93.76
20987;BME280;10652;50.306;8.570;2023-03-13T16:28:46;96059.66;;;12.47;93.57
20987;BME280;10652;50.306;8.570;2023-03-13T16:32:49;96051.19;;;12.43;93.46
20987;BME280;10652;50.306;8.570;2023-03-13T16:36:51;96029.81;;;12.37;93.15
20987;BME280;10652;50.306;8.570;2023-03-13T16:40:53;96031.41;;;12.28;93.12
20987;BME280;10652;50.306;8.570;2023-03-13T16:44:55;96042.06;;;12.26;92.86
20987;BME280;10652;50.306;8.570;2023-03-13T16:48:57;96038.84;;;12.23;92.26
20987;BME280;10652;50.306;8.570;2023-03-13T16:53:00;96053.81;;;12.22;92.21
20987;BME280;10652;50.306;8.570;2023-03-13T16:57:02;96069.59;;;12.22;91.97
20987;BME280;10652;50.306;8.570;2023-03-13T17:01:07;96087.34;;;12.20;91.96
20987;BME280;10652;50.306;8.570;2023-03-13T17:05:10;96076.09;;;12.18;91.55
20987;BME280;10652;50.306;8.570;2023-03-13T17:09:16;96081.25;;;12.20;91.25
20987;BME280;10652;50.306;8.570;2023-03-13T17:13:18;96082.31;;;12.17;91.28
20987;BME280;10652;50.306;8.570;2023-03-13T17:17:21;96072.91;;;12.15;91.48
20987;BME280;10652;50.306;8.570;2023-03-13T17:21:26;96069.81;;;12.10;91.99
20987;BME280;10652;50.306;8.570;2023-03-13T17:25:29;96059.81;;;12.04;93.22
20987;BME280;10652;50.306;8.570;2023-03-13T17:29:32;96047.31;;;11.96;94.42
20987;BME280;10652;50.306;8.570;2023-03-13T17:33:34;96054.06;;;11.89;95.49
20987;BME280;10652;50.306;8.570;2023-03-13T17:37:36;96070.22;;;11.85;96.03
20987;BME280;10652;50.306;8.570;2023-03-13T17:41:38;96046.09;;;11.79;95.92
20987;BME280;10652;50.306;8.570;2023-03-13T17:45:40;96037.63;;;11.76;95.53
20987;BME280;10652;50.306;8.570;2023-03-13T17:49:43;96037.88;;;11.73;94.86
20987;BME280;10652;50.306;8.570;2023-03-13T17:53:45;96033.00;;;11.68;94.76
20987;BME280;10652;50.306;8.570;2023-03-13T17:57:48;96053.47;;;11.65;94.66
20987;BME280;10652;50.306;8.570;2023-03-13T18:01:50;96051.78;;;11.64;94.74
20987;BME280;10652;50.306;8.570;2023-03-13T18:05:52;96026.59;;;11.61;94.07
20987;BME280;10652;50.306;8.570;2023-03-13T18:09:56;96045.84;;;11.62;92.79
20987;BME280;10652;50.306;8.570;2023-03-13T18:13:58;96032.69;;;11.62;92.26
20987;BME280;10652;50.306;8.570;2023-03-13T18:18:01;96034.09;;;11.66;91.50
20987;BME280;10652;50.306;8.570;2023-03-13T18:22:05;96008.38;;;11.69;90.73
20987;BME280;10652;50.306;8.570;2023-03-13T18:26:28;95994.13;;;11.72;90.96
20987;BME280;10652;50.306;8.570;2023-03-13T18:30:31;95994.28;;;11.70;91.71
20987;BME280;10652;50.306;8.570;2023-03-13T18:34:33;95997.03;;;11.69;92.82
20987;BME280;10652;50.306;8.570;2023-03-13T18:38:36;95972.66;;;11.67;93.83
20987;BME280;10652;50.306;8.570;2023-03-13T18:42:38;95985.47;;;11.60;97.41
20987;BME280;10652;50.306;8.570;2023-03-13T18:46:44;96013.25;;;11.53;99.99
20987;BME280;10652;50.306;8.570;2023-03-13T18:50:46;95998.09;;;11.46;100.00
20987;BME280;10652;50.306;8.570;2023-03-13T18:54:48;96025.88;;;11.39;100.00
20987;BME280;10652;50.306;8.570;2023-03-13T18:58:51;96022.91;;;11.32;100.00
20987;BME280;10652;50.306;8.570;2023-03-13T19:02:54;96027.31;;;11.31;99.26
20987;BME280;10652;50.306;8.570;2023-03-13T19:06:56;95998.41;;;11.31;96.73
20987;BME280;10652;50.306;8.570;2023-03-13T19:10:58;95960.47;;;11.24;96.28
20987;BME280;10652;50.306;8.570;2023-03-13T19:15:00;95956.53;;;11.19;95.88
20987;BME280;10652;50.306;8.570;2023-03-13T19:19:09;95976.88;;;11.17;93.46
20987;BME280;10652;50.306;8.570;2023-03-13T19:23:11;95982.50;;;11.12;90.67
20987;BME280;10652;50.306;8.570;2023-03-13T19:27:14;95983.47;;;11.11;87.22
20987;BME280;10652;50.306;8.570;2023-03-13T19:31:17;96004.94;;;11.16;80.62
20987;BME280;10652;50.306;8.570;2023-03-13T19:35:19;95920.59;;;11.19;80.99
20987;BME280;10652;50.306;8.570;2023-03-13T19:39:24;95951.41;;;11.17;80.99
20987;BME280;10652;50.306;8.570;2023-03-13T19:43:26;95955.97;;;11.15;79.94
20987;BME280;10652;50.306;8.570;2023-03-13T19:47:28;95955.41;;;11.12;78.14
20987;BME280;10652;50.306;8.570;2023-03-13T19:51:30;95863.53;;;11.10;77.06
20987;BME280;10652;50.306;8.570;2023-03-13T19:55:32;95942.34;;;11.10;76.97
20987;BME280;10652;50.306;8.570;2023-03-13T19:59:34;95931.38;;;11.05;76.76
20987;BME280;10652;50.306;8.570;2023-03-13T20:03:39;95942.84;;;11.04;77.71
20987;BME280;10652;50.306;8.570;2023-03-13T20:07:42;95942.53;;;10.98;79.88
20987;BME280;10652;50.306;8.570;2023-03-13T20:11:44;95909.81;;;10.90;82.21
20987;BME280;10652;50.306;8.570;2023-03-13T20:15:46;95917.66;;;10.81;83.48
20987;BME280;10652;50.306;8.570;2023-03-13T20:19:48;95926.03;;;10.75;84.54
20987;BME280;10652;50.306;8.570;2023-03-13T20:23:50;95917.78;;;10.68;83.96
20987;BME280;10652;50.306;8.570;2023-03-13T20:27:53;95921.91;;;10.61;83.77
20987;BME280;10652;50.306;8.570;2023-03-13T20:31:55;95942.16;;;10.59;83.40
20987;BME280;10652;50.306;8.570;2023-03-13T20:36:07;95962.84;;;10.53;82.29
20987;BME280;10652;50.306;8.570;2023-03-13T20:40:10;95971.09;;;10.48;81.39
20987;BME280;10652;50.306;8.570;2023-03-13T20:44:12;95952.94;;;10.45;80.35
20987;BME280;10652;50.306;8.570;2023-03-13T20:48:15;95938.75;;;10.36;80.55
20987;BME280;10652;50.306;8.570;2023-03-13T20:52:17;95938.81;;;10.25;81.75
20987;BME280;10652;50.306;8.570;2023-03-13T20:56:19;95923.78;;;10.16;82.12
20987;BME280;10652;50.306;8.570;2023-03-13T21:00:22;95919.38;;;10.06;82.90
20987;BME280;10652;50.306;8.570;2023-03-13T21:04:24;95921.88;;;9.96;83.25
20987;BME280;10652;50.306;8.570;2023-03-13T21:08:26;95923.56;;;9.86;83.29
20987;BME280;10652;50.306;8.570;2023-03-13T21:12:28;95921.91;;;9.74;83.55
20987;BME280;10652;50.306;8.570;2023-03-13T21:16:30;95908.63;;;9.64;83.23
20987;BME280;10652;50.306;8.570;2023-03-13T21:20:32;95894.44;;;9.55;82.98
20987;BME280;10652;50.306;8.570;2023-03-13T21:24:35;95905.53;;;9.48;82.97
20987;BME280;10652;50.306;8.570;2023-03-13T21:28:38;95912.81;;;9.44;82.96
20987;BME280;10652;50.306;8.570;2023-03-13T21:32:41;95913.50;;;9.46;83.07
20987;BME280;10652;50.306;8.570;2023-03-13T21:36:43;95894.47;;;9.67;83.54
20987;BME280;10652;50.306;8.570;2023-03-13T21:40:45;95885.63;;;9.68;81.62
20987;BME280;10652;50.306;8.570;2023-03-13T21:44:47;95867.41;;;9.66;80.91
20987;BME280;10652;50.306;8.570;2023-03-13T21:48:49;95880.53;;;9.66;80.73
20987;BME280;10652;50.306;8.570;2023-03-13T21:52:51;95888.50;;;9.65;81.00
20987;BME280;10652;50.306;8.570;2023-03-13T21:56:53;95894.69;;;9.64;81.19
20987;BME280;10652;50.306;8.570;2023-03-13T22:00:56;95909.94;;;9.58;82.15
20987;BME280;10652;50.306;8.570;2023-03-13T22:04:59;95905.88;;;9.54;83.40
20987;BME280;10652;50.306;8.570;2023-03-13T22:09:03;95899.22;;;9.50;85.02
20987;BME280;10652;50.306;8.570;2023-03-13T22:13:11;95897.09;;;9.44;86.46
20987;BME280;10652;50.306;8.570;2023-03-13T22:17:13;95889.44;;;9.41;87.59
20987;BME280;10652;50.306;8.570;2023-03-13T22:21:18;95885.75;;;9.33;88.46
20987;BME280;10652;50.306;8.570;2023-03-13T22:25:20;95898.34;;;9.28;89.88
20987;BME280;10652;50.306;8.570;2023-03-13T22:29:22;95868.94;;;9.24;90.77
20987;BME280;10652;50.306;8.570;2023-03-13T22:33:25;95874.53;;;9.20;91.56
20987;BME280;10652;50.306;8.570;2023-03-13T22:37:27;95909.88;;;9.14;92.67
20987;BME280;10652;50.306;8.570;2023-03-13T22:41:29;95916.41;;;9.08;92.98
20987;BME280;10652;50.306;8.570;2023-03-13T22:45:31;95928.06;;;9.04;94.13